Portada
METAR-TAF:

METAR-TAF

Aeropuertos :

Aeropuerto El Tari

Kupang, Indonesia

latitud: 10-10-17S, longitud: 123-40-16E, altitud: 102 m

Observación

El informe se hizo hace 41 minutos, a las 04:00 UTC
Viento 11 kt del este
Temperatura 32°C
Humedad 46%
Presión 1013 hPa
Visibilidad 10 km o más
Nubes dispersas a una altura de 1900 ft

METAR: WATT 230400Z 10011KT 9999 SCT019 32/19 Q1013 NOSIG

Hora: 11:41 (04:41 UTC)

Pronóstico

El informe se hizo hace 5 horas y 41 minutos, a las 23:00 UTC
Pronóstico válido del 23 a las 00 UTC al 23 a las 24 UTC
Viento 8 kt del este-sureste
Visibilidad 10 km o más
Escasas nubes a una altura de 1900 ft
Evolucionando progresivamente
del 23 a las 00 UTC al 23 a las 03 UTC
Viento 20 kt del este-sureste

TAF: WATT 222300Z 2300/2324 11008KT 9999 FEW019 BECMG 2300/2303 12020KT

Observaciones y pronósticos meteorológicos de más de 4000 aeropuertos (mensajes METAR y TAF).

Los puntos amarillos y rojos representan las estaciones disponibles.

Ponga el ratón en el punto deseado para ver el nombre de la estación.

Haga clic para ver las observaciones y los pronósticos meteorológicos.

Para cambiar el mapa : haga clic en los botones verdes con una cruz de color negro para hacer un zoom, en el botón verde con un guión para alejar o en las flechas verdes para mapas adyacentes.


METAR-TAF: